Time;durP1;ratioP1;P1;durP2;ratioP2;P2;SDS_P1;SDS_P2;PMS_P1;PMS_P2;Temp;Humidity;BMP_temperature;BMP_pressure;BME280_temperature;BME280_humidity;BME280_pressure;Samples;Min_cycle;Max_cycle;Signal;HPM_P1;HPM_P2
2021/10/29 00:02:01;;;;;;;39.15;25.23;;;;;;;6.10;80.18;100733.09;4991117;28;20038;-80
2021/10/29 00:04:26;;;;;;;32.95;23.05;;;;;;;6.11;80.37;100738.38;5007739;28;20038;-80
2021/10/29 00:06:52;;;;;;;36.15;24.23;;;;;;;6.14;80.33;100734.94;5008715;28;20401;-81
2021/10/29 00:09:17;;;;;;;31.52;22.25;;;;;;;6.10;80.32;100727.88;5007801;28;20030;-80
2021/10/29 00:11:42;;;;;;;34.47;24.75;;;;;;;6.07;80.31;100733.94;5008292;28;20039;-81
2021/10/29 00:14:08;;;;;;;31.20;22.13;;;;;;;6.10;80.47;100735.72;4989957;28;20046;-80
2021/10/29 00:16:33;;;;;;;29.80;22.70;;;;;;;6.03;80.40;100732.16;5007107;28;20031;-80
2021/10/29 00:18:59;;;;;;;30.77;21.85;;;;;;;5.93;80.28;100731.13;5007938;28;20030;-80
2021/10/29 00:21:24;;;;;;;30.48;23.27;;;;;;;5.89;80.14;100731.00;4990506;28;20072;-80
2021/10/29 00:23:49;;;;;;;29.73;22.73;;;;;;;5.91;80.81;100729.28;4989823;28;20038;-80
2021/10/29 00:26:15;;;;;;;33.65;23.15;;;;;;;5.93;80.65;100727.59;5007287;28;20109;-80
2021/10/29 00:28:41;;;;;;;34.83;23.55;;;;;;;6.01;80.96;100736.47;5009959;28;20058;-80
2021/10/29 00:31:06;;;;;;;33.47;24.60;;;;;;;6.11;80.73;100727.91;5007841;28;20567;-80
2021/10/29 00:33:31;;;;;;;30.65;21.35;;;;;;;6.11;80.62;100732.28;5007654;28;20236;-80
2021/10/29 00:35:57;;;;;;;32.42;24.35;;;;;;;6.10;80.59;100726.16;4991076;28;20501;-81
2021/10/29 00:38:23;;;;;;;31.38;23.73;;;;;;;6.17;80.53;100729.72;4991375;28;20112;-81
2021/10/29 00:40:48;;;;;;;31.27;23.30;;;;;;;6.15;80.29;100729.69;5007345;28;20054;-80
2021/10/29 00:43:13;;;;;;;29.92;21.58;;;;;;;6.04;79.73;100727.78;4973672;28;20041;-80
2021/10/29 00:45:39;;;;;;;30.13;23.33;;;;;;;5.88;79.76;100727.50;5006943;28;20081;-80
2021/10/29 00:48:05;;;;;;;31.13;22.30;;;;;;;5.79;80.19;100724.75;5007313;28;20037;-81
2021/10/29 00:50:30;;;;;;;31.05;22.80;;;;;;;5.70;80.31;100728.09;5006786;28;20030;-80
2021/10/29 00:52:56;;;;;;;30.30;21.25;;;;;;;5.64;80.96;100730.59;5006076;28;20031;-80
2021/10/29 00:55:22;;;;;;;31.63;22.85;;;;;;;5.60;81.33;100733.13;4988881;28;20046;-80
2021/10/29 00:57:50;;;;;;;29.77;22.15;;;;;;;5.55;81.74;100737.41;5005697;28;20048;-79
2021/10/29 01:00:18;;;;;;;27.23;21.88;;;;;;;5.50;81.84;100726.84;4971774;28;20048;-80
2021/10/29 01:02:43;;;;;;;35.30;23.00;;;;;;;5.46;81.86;100719.81;5005601;28;20053;-79
2021/10/29 01:05:09;;;;;;;32.70;23.80;;;;;;;5.37;81.36;100720.56;5005836;28;20046;-80
2021/10/29 01:07:35;;;;;;;29.35;21.77;;;;;;;5.37;81.16;100719.63;5005941;28;20106;-79
2021/10/29 01:10:04;;;;;;;34.45;23.73;;;;;;;5.44;81.35;100716.28;5006080;28;20040;-79
2021/10/29 01:12:30;;;;;;;35.80;23.35;;;;;;;5.45;81.63;100718.06;5005683;28;20045;-79
2021/10/29 01:14:56;;;;;;;32.58;23.85;;;;;;;5.43;81.41;100712.78;5006115;28;20042;-79
2021/10/29 01:17:22;;;;;;;34.58;24.80;;;;;;;5.30;80.94;100697.72;5004848;28;20046;-79
2021/10/29 01:19:52;;;;;;;30.50;23.00;;;;;;;5.26;81.59;100704.63;4985904;28;20065;-79
2021/10/29 01:22:17;;;;;;;35.78;24.20;;;;;;;5.23;81.14;100706.31;4986318;28;20049;-78
2021/10/29 01:24:43;;;;;;;30.60;23.55;;;;;;;5.24;81.76;100708.09;4986747;28;20034;-79
2021/10/29 01:27:10;;;;;;;32.92;23.73;;;;;;;5.19;82.14;100705.38;5009063;28;20138;-79
2021/10/29 01:29:36;;;;;;;34.72;23.23;;;;;;;4.99;81.24;100704.13;5009421;28;20072;-79
2021/10/29 01:32:03;;;;;;;27.50;21.17;;;;;;;4.79;81.78;100707.25;4991665;28;20027;-79
2021/10/29 01:34:29;;;;;;;34.35;26.63;;;;;;;4.78;82.94;100702.84;5007056;28;20045;-79
2021/10/29 01:36:54;;;;;;;31.92;23.45;;;;;;;4.81;82.85;100697.66;4990093;28;20026;-79
2021/10/29 01:39:20;;;;;;;30.77;22.45;;;;;;;4.84;82.82;100700.34;5007428;28;20125;-79
2021/10/29 01:41:45;;;;;;;28.77;23.05;;;;;;;4.81;82.31;100695.06;4985945;28;20035;-80
2021/10/29 01:44:12;;;;;;;33.00;24.20;;;;;;;4.78;82.54;100695.00;5006891;28;20081;-79
2021/10/29 01:46:38;;;;;;;32.28;23.17;;;;;;;4.79;82.85;100694.16;5007378;28;20065;-79
2021/10/29 01:49:03;;;;;;;36.13;25.50;;;;;;;4.78;82.95;100684.53;5006140;28;20038;-79
2021/10/29 01:51:28;;;;;;;34.90;25.48;;;;;;;4.71;82.33;100690.50;5006998;28;20045;-79
2021/10/29 01:53:54;;;;;;;37.53;27.00;;;;;;;4.65;82.62;100685.16;5006982;28;20038;-79
2021/10/29 01:56:19;;;;;;;30.23;22.45;;;;;;;4.61;82.38;100686.84;5007115;28;20049;-79
2021/10/29 01:58:46;;;;;;;38.92;24.38;;;;;;;4.60;83.11;100692.88;4990346;28;20042;-80
2021/10/29 02:01:11;;;;;;;37.92;26.58;;;;;;;4.62;82.83;100685.09;5008227;28;20113;-79
2021/10/29 02:03:37;;;;;;;34.55;26.25;;;;;;;4.54;82.36;100679.72;5007269;28;20057;-79
2021/10/29 02:06:03;;;;;;;34.25;25.20;;;;;;;4.52;83.49;100686.63;5007422;28;20038;-79
2021/10/29 02:08:30;;;;;;;36.53;24.60;;;;;;;4.41;82.88;100684.66;4989811;28;20110;-79
2021/10/29 02:10:55;;;;;;;37.55;26.10;;;;;;;4.27;83.14;100680.00;4983741;28;20038;-79
2021/10/29 02:13:21;;;;;;;35.72;23.20;;;;;;;4.20;83.42;100692.91;5007654;28;20047;-79
2021/10/29 02:15:48;;;;;;;34.70;24.88;;;;;;;4.09;82.93;100682.22;5008187;28;20034;-80
2021/10/29 02:18:13;;;;;;;33.72;22.70;;;;;;;4.04;83.44;100686.47;5008871;28;20042;-80
2021/10/29 02:20:39;;;;;;;33.47;23.10;;;;;;;3.98;83.56;100684.56;5009162;28;20034;-80
2021/10/29 02:23:04;;;;;;;31.70;22.33;;;;;;;3.93;83.54;100681.88;5007487;28;20078;-80
2021/10/29 02:25:30;;;;;;;32.63;22.75;;;;;;;3.85;83.53;100677.28;5004437;28;20058;-80
2021/10/29 02:27:55;;;;;;;31.90;22.98;;;;;;;3.77;83.23;100681.44;5006867;28;20046;-80
2021/10/29 02:30:21;;;;;;;31.92;25.05;;;;;;;3.62;83.51;100679.38;5007724;28;20038;-79
2021/10/29 02:32:46;;;;;;;29.63;21.10;;;;;;;3.54;83.83;100686.09;5008348;28;20023;-81
2021/10/29 02:35:11;;;;;;;35.22;23.90;;;;;;;3.48;84.08;100681.63;5007896;28;20053;-80
2021/10/29 02:37:37;;;;;;;36.90;24.15;;;;;;;3.46;84.60;100683.34;5008268;28;20037;-80
2021/10/29 02:40:02;;;;;;;37.53;24.95;;;;;;;3.42;84.73;100681.47;4990554;28;20041;-80
2021/10/29 02:42:28;;;;;;;32.53;24.27;;;;;;;3.35;83.95;100680.44;5007391;28;20064;-80
2021/10/29 02:44:53;;;;;;;37.55;25.48;;;;;;;3.29;84.14;100680.28;5007481;28;20106;-80
2021/10/29 02:47:18;;;;;;;34.53;25.08;;;;;;;3.26;84.34;100685.44;4989968;28;20045;-80
2021/10/29 02:49:44;;;;;;;37.35;25.02;;;;;;;3.22;84.67;100684.47;5007197;28;20043;-80
2021/10/29 02:52:09;;;;;;;31.33;23.27;;;;;;;3.17;84.13;100688.69;4989445;28;20044;-80
2021/10/29 02:54:35;;;;;;;34.53;25.25;;;;;;;3.12;84.13;100676.34;5006385;28;20062;-79
2021/10/29 02:57:00;;;;;;;30.02;21.55;;;;;;;3.05;84.10;100683.13;4990461;28;20046;-80
2021/10/29 02:59:25;;;;;;;31.25;22.00;;;;;;;2.96;83.53;100686.38;5006533;28;20100;-80
2021/10/29 03:01:51;;;;;;;34.08;23.15;;;;;;;2.90;83.42;100688.81;5010109;28;20040;-79
2021/10/29 03:04:16;;;;;;;31.25;22.42;;;;;;;2.86;83.97;100694.81;4993284;28;20034;-79
2021/10/29 03:06:42;;;;;;;35.30;23.63;;;;;;;2.85;84.29;100693.00;4994042;28;20090;-80
2021/10/29 03:09:07;;;;;;;29.85;21.33;;;;;;;2.83;84.69;100694.72;4998040;28;20030;-78
2021/10/29 03:11:33;;;;;;;35.35;22.85;;;;;;;2.79;84.80;100688.53;5008903;28;20116;-78
2021/10/29 03:13:58;;;;;;;38.70;27.92;;;;;;;2.79;85.04;100695.47;5008736;28;20182;-79
2021/10/29 03:16:23;;;;;;;37.72;24.85;;;;;;;2.79;85.20;100692.84;4990787;28;20045;-79
2021/10/29 03:18:52;;;;;;;38.65;25.38;;;;;;;2.75;84.79;100691.00;4985432;28;20046;-79
2021/10/29 03:21:17;;;;;;;32.67;23.38;;;;;;;2.71;85.05;100689.16;5007094;28;20034;-78
2021/10/29 03:23:43;;;;;;;34.40;23.05;;;;;;;2.69;84.69;100685.63;5008015;28;20571;-80
2021/10/29 03:26:09;;;;;;;33.58;22.80;;;;;;;2.62;84.93;100685.44;4990388;28;20482;-79
2021/10/29 03:28:35;;;;;;;36.10;24.67;;;;;;;2.55;85.14;100688.72;5006923;28;20049;-79
2021/10/29 03:31:00;;;;;;;35.95;24.00;;;;;;;2.55;85.21;100682.63;5008034;28;20038;-78
2021/10/29 03:33:26;;;;;;;32.25;21.90;;;;;;;2.53;85.27;100685.16;4991366;28;20025;-78
2021/10/29 03:35:52;;;;;;;30.17;21.25;;;;;;;2.50;84.79;100679.88;4990906;28;20472;-78
2021/10/29 03:38:41;;;;;;;31.27;21.83;;;;;;;2.46;84.14;100685.81;5007430;28;20046;-78
2021/10/29 03:41:09;;;;;;;32.38;22.42;;;;;;;2.41;84.75;100675.31;4982886;28;20038;-78
2021/10/29 03:43:40;;;;;;;43.38;28.38;;;;;;;2.38;84.78;100675.22;5000524;28;20465;-77
2021/10/29 03:46:15;;;;;;;33.15;24.60;;;;;;;2.39;85.21;100682.19;5000891;28;20038;-78
2021/10/29 03:48:56;;;;;;;35.42;26.73;;;;;;;2.34;85.01;100677.69;4998188;28;20050;-78
2021/10/29 03:51:26;;;;;;;45.15;31.58;;;;;;;2.27;85.18;100678.31;4999958;28;20050;-77
2021/10/29 03:54:04;;;;;;;38.72;25.55;;;;;;;2.27;85.74;100680.94;4999626;28;20521;-78
2021/10/29 03:56:30;;;;;;;35.67;25.75;;;;;;;2.26;85.36;100685.25;4997375;28;20049;-78
2021/10/29 03:58:57;;;;;;;34.30;24.55;;;;;;;2.25;84.98;100685.19;5001825;28;20057;-79
2021/10/29 04:01:23;;;;;;;36.28;24.77;;;;;;;2.17;84.57;100688.47;5004478;28;20042;-78
2021/10/29 04:03:49;;;;;;;39.50;26.85;;;;;;;2.13;84.64;100688.34;4986947;28;20034;-78
2021/10/29 04:06:15;;;;;;;35.90;24.85;;;;;;;2.12;85.05;100681.34;5005274;28;20149;-78
2021/10/29 04:08:40;;;;;;;34.17;24.55;;;;;;;2.13;85.08;100680.53;4987900;28;20026;-79
2021/10/29 04:11:08;;;;;;;33.03;23.08;;;;;;;2.14;84.67;100680.53;5004697;28;20088;-79
2021/10/29 04:13:36;;;;;;;36.15;25.60;;;;;;;2.15;85.28;100681.47;4985725;28;20041;-78
2021/10/29 04:16:03;;;;;;;35.67;22.95;;;;;;;2.12;85.14;100692.66;5004865;28;20042;-78
2021/10/29 04:18:29;;;;;;;37.47;24.42;;;;;;;2.07;84.52;100693.34;5001830;28;20533;-79
2021/10/29 04:20:55;;;;;;;35.78;24.85;;;;;;;2.07;84.97;100688.13;4987395;28;20045;-78
2021/10/29 04:23:20;;;;;;;33.55;23.58;;;;;;;2.06;85.30;100688.97;4986503;28;20035;-78
2021/10/29 04:25:46;;;;;;;32.80;22.98;;;;;;;2.03;84.82;100688.88;5004127;28;20384;-79
2021/10/29 04:28:12;;;;;;;39.60;26.65;;;;;;;2.02;85.17;100681.88;5001953;28;20034;-78
2021/10/29 04:30:41;;;;;;;36.20;25.80;;;;;;;2.04;85.88;100688.03;5004536;28;20038;-79
2021/10/29 04:33:07;;;;;;;40.60;26.83;;;;;;;2.02;86.14;100671.47;5001454;28;20037;-78
2021/10/29 04:35:36;;;;;;;38.55;26.38;;;;;;;2.01;86.01;100672.31;5002371;28;20102;-78
2021/10/29 04:38:04;;;;;;;35.88;22.55;;;;;;;2.03;85.58;100678.47;5002229;28;20034;-78
2021/10/29 04:40:29;;;;;;;33.92;25.90;;;;;;;1.94;85.54;100687.78;4997890;28;20025;-78
2021/10/29 04:42:55;;;;;;;41.85;30.35;;;;;;;1.95;86.38;100691.25;5004836;28;20030;-78
2021/10/29 04:45:20;;;;;;;35.13;25.63;;;;;;;1.93;85.69;100692.91;4990550;28;20046;-78
2021/10/29 04:47:46;;;;;;;45.65;30.83;;;;;;;1.90;85.86;100675.47;5000808;28;20034;-78
2021/10/29 04:50:11;;;;;;;35.53;24.75;;;;;;;1.92;85.91;100672.94;5003101;28;20026;-79
2021/10/29 04:52:37;;;;;;;36.60;25.00;;;;;;;1.91;85.64;100674.66;4984383;28;20034;-78
2021/10/29 04:55:03;;;;;;;30.58;21.75;;;;;;;1.91;85.34;100685.06;5003339;28;20049;-79
2021/10/29 04:57:28;;;;;;;33.85;25.45;;;;;;;1.78;85.42;100679.41;5002769;28;20033;-79
2021/10/29 04:59:54;;;;;;;38.00;25.35;;;;;;;1.70;85.11;100682.69;4984773;28;20100;-79
2021/10/29 05:02:19;;;;;;;34.42;25.50;;;;;;;1.70;85.94;100685.28;5001679;28;20121;-78
2021/10/29 05:04:44;;;;;;;37.35;26.58;;;;;;;1.70;85.94;100677.47;5000754;28;20068;-78
2021/10/29 05:07:10;;;;;;;41.20;25.77;;;;;;;1.72;85.53;100669.69;5002788;28;20497;-79
2021/10/29 05:09:35;;;;;;;43.58;28.85;;;;;;;1.81;86.57;100666.50;4959128;28;20042;-79
2021/10/29 05:12:00;;;;;;;47.72;33.50;;;;;;;1.98;87.33;100662.69;5009850;28;20061;-78
2021/10/29 05:14:26;;;;;;;42.38;30.13;;;;;;;2.06;87.11;100670.75;4989572;28;20069;-79
2021/10/29 05:16:51;;;;;;;47.03;32.58;;;;;;;2.23;87.65;100668.63;5006808;28;20294;-78
2021/10/29 05:19:17;;;;;;;45.00;30.83;;;;;;;2.33;87.95;100663.78;5008603;28;20065;-79
2021/10/29 05:21:42;;;;;;;46.58;29.60;;;;;;;2.37;87.54;100665.63;4989324;28;20915;-79
2021/10/29 05:24:08;;;;;;;45.28;31.85;;;;;;;2.34;87.31;100669.88;5007128;28;20053;-79
2021/10/29 05:26:33;;;;;;;48.60;33.05;;;;;;;2.36;87.72;100670.78;5006020;28;20038;-78
2021/10/29 05:28:58;;;;;;;46.25;32.33;;;;;;;2.42;87.85;100665.75;4983688;28;20041;-79
2021/10/29 05:31:24;;;;;;;45.65;31.63;;;;;;;2.47;87.31;100666.78;4986736;28;20037;-78
2021/10/29 05:33:49;;;;;;;47.17;31.45;;;;;;;2.51;87.22;100671.22;4986599;28;20038;-78
2021/10/29 05:36:14;;;;;;;34.72;24.73;;;;;;;2.41;85.60;100666.56;5002805;28;20045;-79
2021/10/29 05:38:40;;;;;;;37.97;27.73;;;;;;;2.29;85.86;100661.03;5001937;28;20030;-78
2021/10/29 05:41:05;;;;;;;38.72;28.70;;;;;;;2.24;85.81;100670.44;4998945;28;20042;-80
2021/10/29 05:43:30;;;;;;;37.63;26.15;;;;;;;2.20;85.91;100674.63;5001705;28;20030;-79
2021/10/29 05:45:56;;;;;;;40.78;27.77;;;;;;;2.16;86.33;100672.81;4984151;28;20043;-78
2021/10/29 05:48:21;;;;;;;44.17;32.00;;;;;;;2.23;87.62;100669.56;5002303;28;20062;-78
2021/10/29 05:50:49;;;;;;;43.17;29.77;;;;;;;2.25;86.79;100674.78;4984656;28;20122;-78
2021/10/29 05:53:23;;;;;;;40.63;28.58;;;;;;;2.24;86.72;100671.31;5001400;28;20038;-78
2021/10/29 05:55:49;;;;;;;47.60;30.27;;;;;;;2.22;86.21;100672.97;5002286;28;20098;-79
2021/10/29 05:58:14;;;;;;;41.67;29.58;;;;;;;2.17;86.00;100670.25;4984132;28;20054;-79
2021/10/29 06:00:39;;;;;;;47.47;32.63;;;;;;;2.10;85.41;100676.09;5001558;28;20042;-78
2021/10/29 06:03:09;;;;;;;40.30;27.55;;;;;;;2.04;85.30;100678.50;4983902;28;20089;-78
2021/10/29 06:05:34;;;;;;;37.47;27.08;;;;;;;1.95;85.58;100666.09;4983896;28;20497;-79
2021/10/29 06:07:59;;;;;;;44.72;31.70;;;;;;;2.02;86.42;100669.78;5001186;28;20038;-79
2021/10/29 06:10:25;;;;;;;42.60;28.35;;;;;;;2.08;86.77;100675.16;5001256;28;20038;-79
2021/10/29 06:12:50;;;;;;;41.33;29.85;;;;;;;2.09;86.02;100676.91;5001454;28;20038;-79
2021/10/29 06:15:16;;;;;;;47.90;30.73;;;;;;;2.10;85.85;100678.72;4984950;28;20034;-78
2021/10/29 06:17:42;;;;;;;46.42;32.00;;;;;;;2.10;86.08;100677.84;4983813;28;20046;-79
2021/10/29 06:20:08;;;;;;;43.25;28.92;;;;;;;2.10;85.87;100678.72;4998200;28;20557;-78
2021/10/29 06:22:40;;;;;;;49.45;30.23;;;;;;;2.14;86.45;100680.53;5007364;28;20047;-79
2021/10/29 06:25:16;;;;;;;42.33;29.73;;;;;;;2.20;86.17;100682.44;4989574;28;20035;-79
2021/10/29 06:30:27;;;;;;;45.97;29.98;;;;;;;2.29;86.13;100681.88;4978568;28;20169;-79
2021/10/29 06:32:52;;;;;;;44.20;31.05;;;;;;;2.30;85.71;100679.28;4979779;28;20133;-78
2021/10/29 06:35:17;;;;;;;42.83;29.38;;;;;;;2.35;86.18;100677.69;5003361;28;20047;-78
2021/10/29 06:37:43;;;;;;;46.08;31.52;;;;;;;2.41;86.08;100674.38;4983249;28;20042;-78
2021/10/29 06:40:12;;;;;;;45.72;30.98;;;;;;;2.49;86.06;100678.13;4982102;28;20066;-78
2021/10/29 06:42:37;;;;;;;45.33;31.80;;;;;;;2.54;86.37;100673.94;4982736;28;20035;-78
2021/10/29 06:48:14;;;;;;;43.47;29.92;;;;;;;2.84;86.42;100667.81;4998145;28;20050;-78
2021/10/29 06:59:15;;;;;;;53.03;36.08;;;;;;;3.05;86.16;100681.41;4963875;28;20055;-78
2021/10/29 07:01:53;;;;;;;48.88;32.92;;;;;;;3.18;86.82;100674.78;4997360;28;20042;-78
2021/10/29 07:04:43;;;;;;;50.03;35.60;;;;;;;3.40;87.32;100673.59;4982673;28;20065;-79
2021/10/29 07:39:58;;;;;;;42.00;32.88;;;;;;;5.93;84.66;100677.81;4981694;28;20497;-78
2021/10/29 07:42:40;;;;;;;43.03;33.17;;;;;;;6.13;84.61;100673.78;5001952;28;20453;-79
2021/10/29 07:45:07;;;;;;;45.92;34.35;;;;;;;6.31;83.91;100675.78;4990454;28;20043;-79
2021/10/29 07:47:33;;;;;;;46.75;34.70;;;;;;;6.47;83.75;100671.63;4984546;28;20126;-79
2021/10/29 07:49:59;;;;;;;43.13;33.63;;;;;;;6.62;83.59;100672.66;4987140;28;20178;-79
2021/10/29 07:52:25;;;;;;;39.72;31.40;;;;;;;6.76;82.88;100673.72;5005439;28;20131;-78
2021/10/29 07:54:51;;;;;;;35.80;28.65;;;;;;;6.92;82.76;100672.16;5005273;28;20036;-78
2021/10/29 07:57:18;;;;;;;43.80;32.72;;;;;;;7.06;82.32;100675.78;4988384;28;20098;-79
2021/10/29 07:59:45;;;;;;;40.83;31.83;;;;;;;7.24;82.22;100672.47;5001989;28;20093;-79
2021/10/29 08:02:10;;;;;;;41.65;32.28;;;;;;;7.45;81.13;100677.91;5001430;28;20079;-79
2021/10/29 08:04:36;;;;;;;40.35;32.35;;;;;;;7.58;80.76;100676.28;5004851;28;20038;-78
2021/10/29 08:07:02;;;;;;;42.35;33.05;;;;;;;7.67;80.14;100672.84;4986958;28;20042;-79
2021/10/29 08:09:28;;;;;;;40.15;31.73;;;;;;;7.76;80.07;100678.19;5005251;28;20030;-79
2021/10/29 08:11:54;;;;;;;37.00;30.90;;;;;;;7.87;79.56;100678.25;4987205;28;20045;-79
2021/10/29 08:14:22;;;;;;;38.75;31.38;;;;;;;7.98;78.90;100680.97;4995399;28;20030;-79
2021/10/29 08:16:48;;;;;;;37.90;31.70;;;;;;;8.08;78.84;100682.78;4988059;28;20034;-79
2021/10/29 08:19:18;;;;;;;38.42;30.70;;;;;;;8.16;78.28;100677.56;5004398;28;20153;-79
2021/10/29 08:21:43;;;;;;;40.17;30.98;;;;;;;8.27;78.50;100674.13;5004736;28;20057;-79
2021/10/29 08:24:10;;;;;;;37.75;30.55;;;;;;;8.38;78.63;100673.28;5004526;28;20082;-79
2021/10/29 08:26:36;;;;;;;37.75;31.38;;;;;;;8.49;77.99;100671.66;4987760;28;20097;-79
2021/10/29 08:29:01;;;;;;;38.97;30.80;;;;;;;8.58;77.39;100673.44;5002706;28;20262;-79
2021/10/29 08:31:26;;;;;;;38.83;30.77;;;;;;;8.67;77.23;100666.47;5005374;28;20053;-79
2021/10/29 08:33:52;;;;;;;38.50;31.00;;;;;;;8.77;76.95;100673.50;4986241;28;20525;-79
2021/10/29 08:36:20;;;;;;;37.42;29.38;;;;;;;8.87;77.20;100665.66;4988021;28;20046;-78
2021/10/29 08:38:45;;;;;;;36.55;29.65;;;;;;;8.94;76.26;100672.69;4987527;28;20070;-79
2021/10/29 08:41:10;;;;;;;38.15;31.13;;;;;;;9.06;75.95;100662.16;5005104;28;20464;-79
2021/10/29 08:43:36;;;;;;;37.33;30.38;;;;;;;9.11;74.89;100657.78;5004556;28;20038;-79
2021/10/29 08:46:02;;;;;;;34.80;28.20;;;;;;;9.20;75.07;100649.06;4987794;28;20493;-79
2021/10/29 08:48:28;;;;;;;38.42;30.75;;;;;;;9.29;75.16;100642.91;5004766;28;20100;-79
2021/10/29 08:50:54;;;;;;;40.88;34.58;;;;;;;9.40;74.86;100646.41;5011299;28;20053;-79
2021/10/29 08:53:20;;;;;;;53.00;41.85;;;;;;;9.52;75.49;100640.28;4994030;28;20042;-80
2021/10/29 08:55:45;;;;;;;54.88;43.33;;;;;;;9.65;75.18;100642.03;5009043;28;20034;-79
2021/10/29 08:58:11;;;;;;;37.60;32.35;;;;;;;9.76;74.29;100640.25;4990075;28;20042;-79
2021/10/29 09:00:42;;;;;;;33.35;28.95;;;;;;;9.84;73.79;100638.50;5007791;28;20050;-79
2021/10/29 09:03:22;;;;;;;92.38;67.72;;;;;;;9.92;73.16;100635.84;4990750;28;20042;-79
2021/10/29 09:06:04;;;;;;;39.92;34.20;;;;;;;9.99;72.47;100627.06;5008556;28;20065;-79
2021/10/29 09:17:29;;;;;;;35.95;29.30;;;;;;;10.28;71.30;100616.44;5008147;28;20042;-79
2021/10/29 09:33:56;;;;;;;33.30;26.20;;;;;;;10.87;68.81;100598.56;4994803;28;20026;-79
2021/10/29 09:36:39;;;;;;;32.65;25.60;;;;;;;10.96;68.27;100603.78;4993408;28;20038;-79
2021/10/29 09:39:20;;;;;;;33.33;27.38;;;;;;;11.07;68.25;100600.19;5070634;22;20042;-79
2021/10/29 09:42:03;;;;;;;32.47;26.33;;;;;;;11.18;68.15;100587.78;4986981;28;20034;-80
2021/10/29 09:44:42;;;;;;;37.03;26.30;;;;;;;11.27;67.27;100589.50;4988209;28;20069;-79
2021/10/29 09:47:09;;;;;;;32.13;26.50;;;;;;;11.37;66.90;100591.13;4996689;28;20038;-79
2021/10/29 09:49:51;;;;;;;32.33;27.25;;;;;;;11.47;66.44;100589.28;4987877;28;20045;-79
2021/10/29 09:57:22;;;;;;;33.83;28.42;;;;;;;11.63;65.45;100590.91;4969583;28;20151;-79
2021/10/29 09:59:58;;;;;;;39.60;34.97;;;;;;;11.77;64.90;100583.72;4951107;28;20398;-79
2021/10/29 10:02:26;;;;;;;52.13;42.00;;;;;;;11.92;64.87;100587.13;4985281;28;20049;-78
2021/10/29 10:04:54;;;;;;;53.22;43.53;;;;;;;12.07;65.30;100586.97;4988633;28;20033;-79
2021/10/29 10:07:21;;;;;;;42.13;35.10;;;;;;;12.15;64.67;100576.28;4988118;28;20050;-79
2021/10/29 10:09:47;;;;;;;39.33;32.72;;;;;;;12.24;63.74;100574.41;4981367;28;20030;-79
2021/10/29 10:12:15;;;;;;;39.25;33.58;;;;;;;12.32;63.36;100568.16;4983932;28;20453;-78
2021/10/29 10:14:41;;;;;;;44.55;36.58;;;;;;;12.40;63.21;100561.88;4979612;28;20143;-78
2021/10/29 10:17:07;;;;;;;34.65;29.95;;;;;;;12.47;63.29;100563.53;4961418;28;20597;-79
2021/10/29 10:19:32;;;;;;;31.45;27.75;;;;;;;12.50;62.29;100559.97;4985806;28;20053;-77
2021/10/29 10:21:59;;;;;;;33.58;28.02;;;;;;;12.54;61.64;100561.66;4983403;28;20035;-78
2021/10/29 10:24:30;;;;;;;37.47;31.73;;;;;;;12.62;61.31;100549.19;4977532;28;20458;-78
2021/10/29 10:27:27;;;;;;;38.73;30.63;;;;;;;12.74;60.97;100558.75;4960401;28;20031;-80
2021/10/29 10:44:20;;;;;;;28.08;22.85;;;;;;;13.18;58.72;100541.28;4967248;28;20035;-77
2021/10/29 10:46:52;;;;;;;26.83;23.30;;;;;;;13.30;59.45;100537.56;4972698;28;20117;-79
2021/10/29 10:49:19;;;;;;;26.65;21.27;;;;;;;13.41;58.96;100535.59;4946641;28;20035;-78
2021/10/29 10:51:51;;;;;;;28.00;22.52;;;;;;;13.45;58.56;100537.31;4971268;28;20042;-78
2021/10/29 10:54:21;;;;;;;25.00;21.35;;;;;;;13.55;58.44;100532.72;4969933;28;20058;-78
2021/10/29 11:03:21;;;;;;;26.70;22.30;;;;;;;13.78;57.57;100519.00;4980562;28;20048;-79
2021/10/29 11:10:15;;;;;;;28.50;25.35;;;;;;;14.00;57.17;100507.06;4973189;28;20041;-77
2021/10/29 11:12:44;;;;;;;26.73;20.90;;;;;;;14.10;57.69;100507.78;4974492;28;20117;-78
2021/10/29 11:15:28;;;;;;;24.92;20.83;;;;;;;14.14;55.57;100503.25;4959526;28;20075;-77
2021/10/29 11:18:00;;;;;;;27.50;22.42;;;;;;;14.21;55.30;100504.88;4976546;28;20049;-77
2021/10/29 11:23:09;;;;;;;27.58;20.40;;;;;;;14.48;54.58;100496.28;4980020;28;20038;-79
2021/10/29 11:25:52;;;;;;;26.17;20.90;;;;;;;14.66;55.27;100483.53;4962568;28;20038;-78
2021/10/29 11:28:22;;;;;;;27.40;20.25;;;;;;;14.78;54.49;100490.34;4981188;28;20476;-78
2021/10/29 11:30:47;;;;;;;22.77;19.13;;;;;;;14.86;54.07;100483.94;4964692;28;20057;-78
2021/10/29 11:33:15;;;;;;;20.60;18.40;;;;;;;14.98;54.36;100479.22;4947146;28;20030;-80
2021/10/29 11:35:41;;;;;;;21.42;18.63;;;;;;;15.13;53.86;100484.16;4963163;28;20564;-77
2021/10/29 11:38:08;;;;;;;23.17;19.58;;;;;;;15.17;53.33;100477.84;4962801;28;20049;-77
2021/10/29 11:40:34;;;;;;;27.25;19.38;;;;;;;15.31;53.13;100472.16;4980934;28;20048;-77
2021/10/29 11:43:00;;;;;;;26.75;20.60;;;;;;;15.39;51.64;100463.97;4979584;28;20122;-77
2021/10/29 11:45:34;;;;;;;23.67;19.77;;;;;;;15.47;51.77;100462.00;4979384;28;20129;-78
2021/10/29 11:48:00;;;;;;;28.00;19.77;;;;;;;15.54;52.16;100460.91;4958745;28;20111;-77
2021/10/29 11:50:25;;;;;;;26.75;20.17;;;;;;;15.70;51.98;100448.94;4962459;28;20062;-78
2021/10/29 11:52:51;;;;;;;23.58;20.70;;;;;;;15.74;51.43;100439.94;4979273;28;20511;-77
2021/10/29 11:55:35;;;;;;;24.98;21.27;;;;;;;15.89;50.49;100445.75;4960055;28;20041;-77
2021/10/29 11:58:33;;;;;;;23.60;19.23;;;;;;;15.98;50.02;100441.03;4960820;28;20046;-77
2021/10/29 12:01:25;;;;;;;23.17;18.90;;;;;;;16.03;49.33;100435.56;4960410;28;20557;-77
2021/10/29 12:09:03;;;;;;;23.13;19.58;;;;;;;16.51;49.65;100420.78;4957441;28;20037;-77
2021/10/29 12:11:29;;;;;;;22.35;18.77;;;;;;;16.64;49.81;100422.97;4975425;28;20489;-77
2021/10/29 12:13:59;;;;;;;25.08;17.55;;;;;;;16.72;47.77;100408.53;4974892;28;20477;-77
2021/10/29 12:16:26;;;;;;;19.80;16.92;;;;;;;16.72;47.49;100405.88;4975779;28;20502;-77
2021/10/29 12:18:55;;;;;;;20.13;17.52;;;;;;;16.72;48.27;100395.22;4975146;28;20038;-77
2021/10/29 12:21:22;;;;;;;25.50;20.02;;;;;;;16.86;48.00;100392.97;4975666;28;20498;-77
2021/10/29 12:23:50;;;;;;;25.48;20.75;;;;;;;16.95;47.62;100390.00;4974930;28;20057;-77
2021/10/29 12:26:21;;;;;;;23.90;19.05;;;;;;;17.12;47.18;100385.88;4974239;28;20038;-77
2021/10/29 12:28:53;;;;;;;25.10;18.10;;;;;;;17.32;47.45;100378.03;4975111;28;20038;-77
2021/10/29 12:31:45;;;;;;;21.35;18.20;;;;;;;17.47;46.64;100377.44;4957933;28;20043;-77
2021/10/29 12:34:28;;;;;;;26.63;22.67;;;;;;;17.38;45.47;100379.59;4940113;28;20041;-77
2021/10/29 12:37:29;;;;;;;21.17;18.65;;;;;;;17.50;46.01;100377.34;4975804;28;20038;-77
2021/10/29 12:53:53;;;;;;;23.73;20.45;;;;;;;18.17;44.38;100367.69;4954284;28;20126;-78
2021/10/29 13:01:25;;;;;;;22.52;17.35;;;;;;;18.28;43.00;100365.44;4975151;28;20042;-77
2021/10/29 13:02:07;;;;;;;19.92;16.40;;;;;;;18.31;43.31;100364.44;4975233;28;20042;-77
2021/10/29 13:04:43;;;;;;;17.30;15.32;;;;;;;18.48;42.72;100355.75;4975230;28;20097;-77
2021/10/29 13:07:09;;;;;;;16.85;15.05;;;;;;;18.59;42.90;100358.84;4972340;28;20042;-77
2021/10/29 13:09:38;;;;;;;20.20;16.40;;;;;;;18.51;42.25;100347.59;4957822;28;20045;-78
2021/10/29 13:12:16;;;;;;;21.02;16.13;;;;;;;18.34;41.79;100349.19;4975070;28;20037;-77
2021/10/29 13:14:45;;;;;;;21.33;15.93;;;;;;;18.48;41.55;100343.25;4957679;28;20411;-77
2021/10/29 13:17:19;;;;;;;25.25;21.30;;;;;;;18.59;42.01;100345.47;4974932;28;20035;-77
2021/10/29 13:20:12;;;;;;;25.20;20.63;;;;;;;18.58;42.03;100344.63;4957764;28;20093;-77
2021/10/29 13:26:00;;;;;;;18.80;16.42;;;;;;;18.72;41.54;100338.66;4972025;28;20049;-77
2021/10/29 13:28:26;;;;;;;29.13;26.02;;;;;;;18.96;41.92;100338.56;4954367;28;20429;-77